createdAt,value
2019-04-11T00:04:46.360Z,7.38
2019-04-11T00:09:51.335Z,7.39
2019-04-11T00:14:58.545Z,7.31
2019-04-11T00:20:04.238Z,7.23
2019-04-11T00:25:09.519Z,7.20
2019-04-11T00:30:17.823Z,7.13
2019-04-11T00:35:23.830Z,7.10
2019-04-11T00:40:29.149Z,7.12
2019-04-11T00:45:34.049Z,7.08
2019-04-11T00:50:39.210Z,6.94
2019-04-11T00:55:44.244Z,6.90
2019-04-11T01:00:49.690Z,6.84
2019-04-11T01:05:55.553Z,6.76
2019-04-11T01:11:01.633Z,6.71
2019-04-11T01:16:20.222Z,6.59
2019-04-11T01:21:26.379Z,6.54
2019-04-11T01:26:31.646Z,6.49
2019-04-11T01:31:37.971Z,6.44
2019-04-11T01:36:43.023Z,6.36
2019-04-11T01:41:48.860Z,6.33
2019-04-11T01:46:54.190Z,6.32
2019-04-11T01:52:00.098Z,6.15
2019-04-11T01:57:05.475Z,6.05
2019-04-11T02:02:30.424Z,5.92
2019-04-11T02:07:36.572Z,5.81
2019-04-11T02:12:42.041Z,5.83
2019-04-11T02:17:47.092Z,5.82
2019-04-11T02:23:06.773Z,5.73
2019-04-11T02:28:14.751Z,5.62
2019-04-11T02:33:21.582Z,5.61
2019-04-11T02:38:28.457Z,5.68
2019-04-11T02:43:36.471Z,5.61
2019-04-11T02:48:42.687Z,5.49
2019-04-11T02:53:49.694Z,5.30
2019-04-11T02:58:56.469Z,5.13
2019-04-11T03:04:02.506Z,5.13
2019-04-11T03:09:08.817Z,5.08
2019-04-11T03:14:14.613Z,5.03
2019-04-11T03:19:35.543Z,4.93
2019-04-11T03:24:29.481Z,4.79
2019-04-11T03:29:36.131Z,4.85
2019-04-11T03:40:07.904Z,4.79
2019-04-11T03:45:19.084Z,4.85
2019-04-11T03:50:07.625Z,4.86
2019-04-11T03:55:08.674Z,4.91
2019-04-11T04:00:15.573Z,4.82
2019-04-11T04:05:21.667Z,4.88
2019-04-11T04:10:29.535Z,4.68
2019-04-11T04:15:59.775Z,4.64
2019-04-11T04:21:06.409Z,4.55
2019-04-11T04:26:12.185Z,4.57
2019-04-11T04:31:18.447Z,4.53
2019-04-11T04:36:25.260Z,4.41
2019-04-11T04:41:39.188Z,4.28
2019-04-11T04:46:55.850Z,4.33
2019-04-11T04:51:47.874Z,4.34
2019-04-11T04:56:54.520Z,4.32
2019-04-11T05:02:01.759Z,4.32
2019-04-11T05:07:07.373Z,4.30
2019-04-11T05:12:13.821Z,4.31
2019-04-11T05:17:19.348Z,4.36
2019-04-11T05:22:24.682Z,4.40
2019-04-11T05:27:35.721Z,4.30
2019-04-11T05:32:41.735Z,4.15
2019-04-11T05:38:02.126Z,4.15
2019-04-11T05:43:07.937Z,4.25
2019-04-11T05:48:25.619Z,4.26
2019-04-11T05:53:33.015Z,4.39
2019-04-11T05:58:42.179Z,4.47
2019-04-11T06:03:45.842Z,4.47
2019-04-11T06:08:54.213Z,4.50
2019-04-11T06:14:22.869Z,4.52
2019-04-11T06:19:35.032Z,4.44
2019-04-11T06:24:59.015Z,4.58
2019-04-11T06:30:15.839Z,4.70
2019-04-11T06:35:28.568Z,4.75
2019-04-11T06:40:50.987Z,4.80
2019-04-11T06:46:33.323Z,4.84
2019-04-11T06:51:44.190Z,5.12
2019-04-11T06:56:51.029Z,5.22
2019-04-11T07:02:09.707Z,5.28
2019-04-11T07:07:09.903Z,5.45
2019-04-11T07:12:40.768Z,5.57
2019-04-11T07:18:06.253Z,5.64
2019-04-11T07:23:29.032Z,5.74
2019-04-11T07:28:48.380Z,5.85
2019-04-11T07:34:31.500Z,6.07
2019-04-11T07:40:07.432Z,6.17
2019-04-11T07:45:20.956Z,6.26
2019-04-11T07:50:26.272Z,6.49
2019-04-11T07:55:36.522Z,6.71
2019-04-11T08:00:55.853Z,6.78
2019-04-11T08:06:31.111Z,7.03
2019-04-11T08:11:44.739Z,7.09
2019-04-11T08:17:09.238Z,7.35
2019-04-11T08:22:35.022Z,7.32
2019-04-11T08:28:00.662Z,7.47
2019-04-11T08:33:07.434Z,7.58
2019-04-11T08:38:20.341Z,7.73
2019-04-11T08:43:31.231Z,7.84
2019-04-11T08:48:42.803Z,7.83
2019-04-11T08:54:27.193Z,7.95
2019-04-11T09:00:10.333Z,8.02
2019-04-11T09:05:49.291Z,7.92
2019-04-11T09:11:20.963Z,8.08
2019-04-11T09:16:44.201Z,8.42
2019-04-11T09:22:08.857Z,8.95
2019-04-11T09:27:51.131Z,9.04
2019-04-11T09:33:10.944Z,8.69
2019-04-11T09:38:16.274Z,8.37
2019-04-11T09:43:28.232Z,8.14
2019-04-11T09:48:55.942Z,7.91
2019-04-11T09:54:12.062Z,7.83
2019-04-11T09:59:22.992Z,7.81
2019-04-11T10:04:46.321Z,7.70
2019-04-11T10:10:08.564Z,7.59
2019-04-11T10:15:15.718Z,7.65
2019-04-11T10:20:21.838Z,7.70
2019-04-11T10:25:32.446Z,7.63
2019-04-11T10:30:55.843Z,7.58
2019-04-11T10:36:27.257Z,7.64
2019-04-11T10:41:37.910Z,7.70
2019-04-11T10:46:51.491Z,7.74
2019-04-11T10:52:08.194Z,7.70
2019-04-11T10:57:38.533Z,7.77
2019-04-11T11:03:18.201Z,7.80
2019-04-11T11:08:37.612Z,7.99
2019-04-11T11:14:05.168Z,8.11
2019-04-11T11:19:45.821Z,8.09
2019-04-11T11:25:06.408Z,8.13
2019-04-11T11:30:31.527Z,8.53
2019-04-11T11:36:10.655Z,8.97
2019-04-11T11:41:36.514Z,8.84
2019-04-11T11:47:06.551Z,8.63
2019-04-11T11:58:30.291Z,8.62
2019-04-11T12:04:01.915Z,8.44
2019-04-11T12:09:39.869Z,8.32
2019-04-11T12:15:17.323Z,8.24
2019-04-11T12:20:36.805Z,8.32
2019-04-11T12:25:45.167Z,8.29
2019-04-11T12:30:57.948Z,8.25
2019-04-11T12:36:06.099Z,8.18
2019-04-11T12:41:22.586Z,8.20
2019-04-11T12:46:45.515Z,8.29
2019-04-11T12:52:08.319Z,8.42
2019-04-11T12:57:31.132Z,8.64
2019-04-11T13:02:58.168Z,8.69
2019-04-11T13:08:28.029Z,8.60
2019-04-11T13:13:42.735Z,8.64
2019-04-11T13:19:01.701Z,8.48
2019-04-11T13:24:32.537Z,8.44
2019-04-11T13:30:03.436Z,8.46
2019-04-11T13:35:27.423Z,8.61
2019-04-11T13:40:55.680Z,8.69
2019-04-11T13:46:35.195Z,8.59
2019-04-11T13:52:12.085Z,8.56
2019-04-11T13:57:39.156Z,8.63
2019-04-11T14:02:59.823Z,8.58
2019-04-11T14:08:05.505Z,8.47
2019-04-11T14:13:10.699Z,8.47
2019-04-11T14:18:41.436Z,8.42
2019-04-11T14:24:01.838Z,8.52
2019-04-11T14:29:13.147Z,8.57
2019-04-11T14:34:57.734Z,8.47
2019-04-11T14:40:20.536Z,8.34
2019-04-11T14:45:45.071Z,8.30
2019-04-11T14:51:09.627Z,8.26
2019-04-11T14:56:14.982Z,8.30
2019-04-11T15:01:20.310Z,8.20
2019-04-11T15:06:31.493Z,8.23
2019-04-11T15:11:51.353Z,8.28
2019-04-11T15:17:14.446Z,8.24
2019-04-11T15:22:39.309Z,8.20
2019-04-11T15:28:13.801Z,8.13
2019-04-11T15:33:47.518Z,8.03
2019-04-11T15:39:12.474Z,8.04
2019-04-11T15:44:45.400Z,8.04
2019-04-11T15:50:10.187Z,8.02
2019-04-11T15:55:57.362Z,7.99
2019-04-11T16:01:21.152Z,8.00
2019-04-11T16:06:54.612Z,7.98
2019-04-11T16:12:12.249Z,7.95
2019-04-11T16:17:36.459Z,7.91
2019-04-11T16:23:09.540Z,7.83
2019-04-11T16:28:44.766Z,7.75
2019-04-11T16:34:10.137Z,7.80
2019-04-11T16:39:50.315Z,7.72
2019-04-11T16:45:12.251Z,7.74
2019-04-11T16:50:18.602Z,7.76
2019-04-11T16:55:28.963Z,7.77
2019-04-11T17:00:34.612Z,7.75
2019-04-11T17:05:42.049Z,7.69
2019-04-11T17:11:18.772Z,7.68
2019-04-11T17:16:23.877Z,7.65
2019-04-11T17:21:43.038Z,7.61
2019-04-11T17:26:44.213Z,7.59
2019-04-11T17:31:49.763Z,7.54
2019-04-11T17:36:55.390Z,7.54
2019-04-11T17:42:00.417Z,7.50
2019-04-11T17:47:06.015Z,7.46
2019-04-11T17:52:11.204Z,7.42
2019-04-11T17:58:15.578Z,7.34
2019-04-11T18:03:47.628Z,7.36
2019-04-11T18:09:08.089Z,7.31
2019-04-11T18:14:15.924Z,7.25
2019-04-11T18:19:25.624Z,7.27
2019-04-11T18:24:50.030Z,7.30
2019-04-11T18:29:54.853Z,7.25
2019-04-11T18:35:02.404Z,7.18
2019-04-11T18:40:10.489Z,7.10
2019-04-11T18:45:17.328Z,7.01
2019-04-11T18:50:22.954Z,6.96
2019-04-11T18:55:28.499Z,6.97
2019-04-11T19:00:35.829Z,6.96
2019-04-11T19:05:42.982Z,6.95
2019-04-11T19:10:48.218Z,6.84
2019-04-11T19:15:56.105Z,6.81
2019-04-11T19:21:03.763Z,6.80
2019-04-11T19:26:08.838Z,6.78
2019-04-11T19:31:14.754Z,6.71
2019-04-11T19:36:20.561Z,6.69
2019-04-11T19:41:26.311Z,6.71
2019-04-11T19:46:33.555Z,6.68
2019-04-11T19:51:40.964Z,6.68
2019-04-11T19:56:51.363Z,6.70
2019-04-11T20:01:57.236Z,6.67
2019-04-11T20:07:07.671Z,6.61
2019-04-11T20:12:15.124Z,6.54
2019-04-11T20:17:20.275Z,6.57
2019-04-11T20:22:25.525Z,6.56
2019-04-11T20:27:33.037Z,6.56
2019-04-11T20:32:38.734Z,6.54
2019-04-11T20:37:54.296Z,6.59
2019-04-11T20:43:00.242Z,6.59
2019-04-11T20:48:06.169Z,6.56
2019-04-11T20:53:54.066Z,6.52
2019-04-11T20:59:05.105Z,6.54
2019-04-11T21:04:11.401Z,6.60
2019-04-11T21:09:16.482Z,6.57
2019-04-11T21:14:21.543Z,6.52
2019-04-11T21:19:28.145Z,6.53
2019-04-11T21:24:33.229Z,6.65
2019-04-11T21:29:38.633Z,6.58
2019-04-11T21:34:43.598Z,6.51
2019-04-11T21:39:49.041Z,6.48
2019-04-11T21:44:54.520Z,6.45
2019-04-11T21:49:59.853Z,6.44
2019-04-11T21:55:05.027Z,6.41
2019-04-11T22:00:22.119Z,6.38
2019-04-11T22:05:28.927Z,6.36
2019-04-11T22:10:34.063Z,6.38
2019-04-11T22:15:42.096Z,6.38
2019-04-11T22:20:45.936Z,6.38
2019-04-11T22:25:50.979Z,6.34
2019-04-11T22:30:56.398Z,6.30
2019-04-11T22:36:01.391Z,6.29
2019-04-11T22:41:06.413Z,6.27
2019-04-11T22:46:20.316Z,6.23
2019-04-11T22:51:18.069Z,6.16
2019-04-11T22:56:23.161Z,6.16
2019-04-11T23:01:29.095Z,6.12
2019-04-11T23:06:34.116Z,6.14
2019-04-11T23:11:39.064Z,6.13
2019-04-11T23:16:44.745Z,6.10
2019-04-11T23:21:50.836Z,6.07
2019-04-11T23:27:32.875Z,6.03
2019-04-11T23:32:37.820Z,6.04
2019-04-11T23:37:52.303Z,6.07
2019-04-11T23:42:57.582Z,5.98
2019-04-11T23:48:02.587Z,5.91
2019-04-11T23:53:07.772Z,5.87
2019-04-11T23:58:12.774Z,5.88
